Time;durP1;ratioP1;P1;durP2;ratioP2;P2;SDS_P1;SDS_P2;PMS_P1;PMS_P2;Temp;Humidity;BMP_temperature;BMP_pressure;BME280_temperature;BME280_humidity;BME280_pressure;Samples;Min_cycle;Max_cycle;Signal;HPM_P1;HPM_P2
2023/04/23 00:00:50;;;;;;;22.30;14.60;;;;;;;6.04;100.00;100973.13;110419;1236;58288;-65
2023/04/23 00:03:37;;;;;;;18.80;13.10;;;;;;;6.09;100.00;100971.36;110455;1234;61838;-64
2023/04/23 00:06:10;;;;;;;20.20;13.80;;;;;;;6.10;100.00;100973.52;110360;1236;74802;-65
2023/04/23 00:08:41;;;;;;;19.50;14.00;;;;;;;6.09;100.00;100971.52;110359;1239;62169;-65
2023/04/23 00:11:10;;;;;;;20.50;13.80;;;;;;;6.08;100.00;100972.08;110301;1235;71158;-65
2023/04/23 00:13:39;;;;;;;19.80;13.90;;;;;;;6.08;100.00;100971.59;110379;1236;72603;-65
2023/04/23 00:16:09;;;;;;;22.10;14.50;;;;;;;6.08;100.00;100971.58;110305;1236;57740;-65
2023/04/23 00:18:38;;;;;;;23.50;15.00;;;;;;;6.07;100.00;100974.73;110241;1236;57667;-66
2023/04/23 00:21:08;;;;;;;22.80;14.70;;;;;;;6.11;100.00;100974.88;110302;1235;63693;-65
2023/04/23 00:23:38;;;;;;;23.20;14.20;;;;;;;6.17;100.00;100976.48;110264;1236;72291;-66
2023/04/23 00:26:07;;;;;;;21.90;14.20;;;;;;;6.22;100.00;100978.80;110168;1238;59175;-65
2023/04/23 00:28:36;;;;;;;26.10;14.60;;;;;;;6.28;100.00;100978.37;110239;1236;62472;-67
2023/04/23 00:31:05;;;;;;;22.70;15.70;;;;;;;6.32;100.00;100973.81;110117;1239;63289;-66
2023/04/23 00:33:34;;;;;;;27.90;16.90;;;;;;;6.37;100.00;100976.88;110200;1235;60075;-66
2023/04/23 00:36:03;;;;;;;23.00;16.10;;;;;;;6.41;100.00;100979.23;110155;1235;73629;-66
2023/04/23 00:38:32;;;;;;;23.20;15.50;;;;;;;6.48;100.00;100981.85;109944;1239;61543;-70
2023/04/23 00:41:01;;;;;;;21.50;15.40;;;;;;;6.54;100.00;100981.20;110252;1235;69636;-68
2023/04/23 00:43:30;;;;;;;22.30;15.30;;;;;;;6.57;100.00;100981.91;110335;1235;73354;-66
2023/04/23 00:45:59;;;;;;;22.70;15.90;;;;;;;6.59;100.00;100981.98;110310;1234;57786;-69
2023/04/23 00:48:28;;;;;;;22.20;15.20;;;;;;;6.62;100.00;100979.88;110285;1235;58398;-68
2023/04/23 00:51:02;;;;;;;24.10;15.10;;;;;;;6.66;100.00;100983.15;110327;1234;63818;-69
2023/04/23 00:53:32;;;;;;;23.50;16.50;;;;;;;6.71;100.00;100986.53;110243;1236;72149;-69
2023/04/23 00:56:04;;;;;;;23.90;15.50;;;;;;;6.76;100.00;100990.14;110319;1235;60315;-69
2023/04/23 00:58:33;;;;;;;22.30;15.90;;;;;;;6.78;100.00;100989.29;110386;1236;73766;-70
2023/04/23 01:01:03;;;;;;;20.80;15.00;;;;;;;6.80;100.00;100987.83;110305;1238;57768;-69
2023/04/23 01:03:35;;;;;;;24.70;15.60;;;;;;;6.81;100.00;100987.77;110314;1235;58324;-69
2023/04/23 01:06:05;;;;;;;26.80;15.60;;;;;;;6.82;100.00;100986.66;110446;1235;64432;-69
2023/04/23 01:08:35;;;;;;;25.00;15.80;;;;;;;6.85;100.00;100990.82;110329;1235;72005;-70
2023/04/23 01:11:04;;;;;;;23.70;15.30;;;;;;;6.88;100.00;100987.93;110205;1234;71009;-70
2023/04/23 01:13:34;;;;;;;21.10;14.30;;;;;;;6.90;100.00;100985.02;110318;1234;63599;-70
2023/04/23 01:16:02;;;;;;;23.90;15.30;;;;;;;6.93;100.00;100983.88;110190;1238;62093;-69
2023/04/23 01:18:31;;;;;;;21.30;15.50;;;;;;;6.92;100.00;100984.77;110228;1235;58430;-70
2023/04/23 01:21:00;;;;;;;22.80;16.10;;;;;;;6.90;100.00;100987.98;110192;1234;63756;-70
2023/04/23 01:23:30;;;;;;;23.30;15.80;;;;;;;6.94;100.00;100986.55;110405;1235;61743;-69
2023/04/23 01:25:58;;;;;;;23.10;15.80;;;;;;;6.96;100.00;100982.15;110294;1237;60841;-70
2023/04/23 01:28:28;;;;;;;23.90;15.60;;;;;;;6.99;100.00;100983.71;110198;1237;62619;-70
2023/04/23 01:30:58;;;;;;;23.10;15.60;;;;;;;7.00;100.00;100985.73;110189;1237;58177;-70
2023/04/23 01:33:27;;;;;;;25.70;15.70;;;;;;;7.03;100.00;100988.84;109991;1234;60450;-70
2023/04/23 01:35:57;;;;;;;20.80;15.70;;;;;;;7.02;100.00;100986.98;110414;1236;74086;-69
2023/04/23 01:38:29;;;;;;;22.40;15.90;;;;;;;7.02;100.00;100987.34;110178;1235;71294;-69
2023/04/23 01:40:58;;;;;;;24.10;16.00;;;;;;;7.02;100.00;100985.60;110378;1234;59646;-69
2023/04/23 01:43:27;;;;;;;19.10;14.30;;;;;;;7.01;100.00;100986.02;110294;1235;62431;-69
2023/04/23 01:45:57;;;;;;;21.50;15.40;;;;;;;7.02;100.00;100986.80;110403;1236;58283;-69
2023/04/23 01:48:26;;;;;;;22.30;14.90;;;;;;;7.01;100.00;100983.22;110343;1238;60934;-69
2023/04/23 01:50:55;;;;;;;21.60;15.00;;;;;;;7.01;100.00;100983.42;110337;1238;74788;-69
2023/04/23 01:53:24;;;;;;;24.30;15.00;;;;;;;7.02;100.00;100983.91;110340;1235;61197;-70
2023/04/23 01:55:55;;;;;;;22.60;15.20;;;;;;;6.98;100.00;100982.52;110347;1235;60525;-69
2023/04/23 01:58:24;;;;;;;22.40;15.20;;;;;;;6.94;100.00;100982.61;110102;1235;73884;-70
2023/04/23 02:00:55;;;;;;;22.00;16.40;;;;;;;6.92;100.00;100985.13;110308;1235;58347;-70
2023/04/23 02:03:23;;;;;;;24.70;13.90;;;;;;;6.93;100.00;100979.56;110432;1234;60276;-70
2023/04/23 02:05:54;;;;;;;19.60;14.60;;;;;;;6.92;100.00;100979.08;110444;1235;75022;-69
2023/04/23 02:08:23;;;;;;;23.10;14.90;;;;;;;6.89;100.00;100980.77;110378;1237;71847;-69
2023/04/23 02:10:52;;;;;;;22.40;14.90;;;;;;;6.85;100.00;100979.23;110374;1234;59597;-69
2023/04/23 02:13:21;;;;;;;20.40;14.20;;;;;;;6.81;100.00;100978.77;110310;1237;73016;-70
2023/04/23 02:15:50;;;;;;;22.00;14.20;;;;;;;6.80;100.00;100977.62;110164;1238;62433;-68
2023/04/23 02:18:18;;;;;;;18.60;13.30;;;;;;;6.77;100.00;100978.46;110189;1235;60728;-69
2023/04/23 02:20:48;;;;;;;22.50;15.80;;;;;;;6.73;100.00;100981.77;110290;1234;64213;-68
2023/04/23 02:23:17;;;;;;;24.70;15.40;;;;;;;6.69;100.00;100979.77;110187;1235;71393;-69
2023/04/23 02:25:45;;;;;;;24.10;16.50;;;;;;;6.65;100.00;100982.19;110204;1234;70699;-69
2023/04/23 02:28:14;;;;;;;24.70;17.40;;;;;;;6.60;100.00;100982.42;110404;1235;63764;-70
2023/04/23 02:30:46;;;;;;;21.70;16.10;;;;;;;6.57;100.00;100982.95;110342;1237;63073;-69
2023/04/23 02:33:15;;;;;;;24.70;16.60;;;;;;;6.53;100.00;100983.69;110388;1234;58243;-69
2023/04/23 02:35:44;;;;;;;25.80;16.40;;;;;;;6.49;100.00;100985.60;110352;1233;63764;-69
2023/04/23 02:38:13;;;;;;;23.50;16.10;;;;;;;6.40;100.00;100977.74;110272;1235;61161;-69
2023/04/23 02:40:42;;;;;;;26.80;16.60;;;;;;;6.38;100.00;100983.91;110478;1234;59188;-70
2023/04/23 02:43:11;;;;;;;20.60;14.90;;;;;;;6.32;100.00;100987.48;110469;1235;63272;-69
2023/04/23 02:45:39;;;;;;;20.10;14.80;;;;;;;6.27;100.00;100990.36;110432;1235;62921;-70
2023/04/23 02:48:08;;;;;;;19.20;14.70;;;;;;;6.22;100.00;100990.27;110486;1233;58289;-70
2023/04/23 02:50:40;;;;;;;21.70;15.30;;;;;;;6.14;100.00;100990.98;110409;1238;63706;-69
2023/04/23 02:53:09;;;;;;;22.30;15.20;;;;;;;6.08;100.00;100989.55;110383;1235;61669;-69
2023/04/23 02:55:38;;;;;;;21.00;15.90;;;;;;;6.04;100.00;100992.52;110270;1234;60018;-68
2023/04/23 02:58:07;;;;;;;20.60;15.40;;;;;;;5.98;100.00;100993.00;110354;1234;62437;-68
2023/04/23 03:00:36;;;;;;;25.10;15.70;;;;;;;5.94;100.00;100995.79;110334;1235;58336;-68
2023/04/23 03:03:05;;;;;;;22.10;15.20;;;;;;;5.91;100.00;100995.92;110276;1235;59895;-69
2023/04/23 03:05:34;;;;;;;22.20;14.20;;;;;;;5.88;100.00;100996.91;110323;1235;74914;-68
2023/04/23 03:08:02;;;;;;;23.00;14.50;;;;;;;5.85;100.00;100994.29;110311;1233;70832;-69
2023/04/23 03:10:31;;;;;;;21.30;14.50;;;;;;;5.80;100.00;100990.52;110419;1234;61203;-69
2023/04/23 03:13:00;;;;;;;21.10;15.10;;;;;;;5.75;100.00;100995.64;110355;1234;62484;-69
2023/04/23 03:15:29;;;;;;;24.60;15.80;;;;;;;5.70;100.00;100994.30;110292;1237;62966;-69
2023/04/23 03:17:58;;;;;;;24.10;15.30;;;;;;;5.65;100.00;100994.52;110289;1235;61578;-69
2023/04/23 03:20:27;;;;;;;23.10;15.60;;;;;;;5.60;100.00;101000.66;110341;1234;72952;-69
2023/04/23 03:22:57;;;;;;;24.30;16.00;;;;;;;5.55;100.00;101002.26;110324;1235;71818;-68
2023/04/23 03:25:26;;;;;;;25.20;17.20;;;;;;;5.53;100.00;101000.80;110333;1235;70003;-69
2023/04/23 03:27:55;;;;;;;24.00;15.70;;;;;;;5.48;100.00;101000.70;110238;1234;74385;-69
2023/04/23 03:30:24;;;;;;;25.20;17.20;;;;;;;5.49;100.00;101002.03;110208;1235;62619;-69
2023/04/23 03:32:55;;;;;;;25.00;17.10;;;;;;;5.50;100.00;101003.54;110261;1234;61842;-68
2023/04/23 03:35:25;;;;;;;22.70;16.10;;;;;;;5.49;100.00;101001.66;110083;1235;63476;-69
2023/04/23 03:37:54;;;;;;;23.60;15.80;;;;;;;5.50;100.00;101002.84;110325;1234;71138;-69
2023/04/23 03:40:24;;;;;;;22.50;16.20;;;;;;;5.54;100.00;101004.04;110191;1235;60658;-69
2023/04/23 03:42:57;;;;;;;24.60;17.00;;;;;;;5.57;100.00;101005.63;110148;1235;65466;-69
2023/04/23 03:45:35;;;;;;;26.30;16.00;;;;;;;5.59;100.00;101010.38;110362;1237;58295;-66
2023/04/23 03:48:04;;;;;;;22.80;15.40;;;;;;;5.61;100.00;101011.67;110381;1238;58261;-66
2023/04/23 03:50:37;;;;;;;21.70;16.10;;;;;;;5.65;100.00;101012.84;110443;1236;63788;-68
2023/04/23 03:53:27;;;;;;;23.00;16.40;;;;;;;5.67;100.00;101015.50;110376;1234;61620;-67
2023/04/23 03:56:51;;;;;;;26.00;18.10;;;;;;;5.72;100.00;101018.23;110294;1234;60067;-66
2023/04/23 03:59:26;;;;;;;33.80;19.90;;;;;;;5.77;100.00;101020.39;110304;1233;73931;-66
2023/04/23 04:01:57;;;;;;;29.20;17.50;;;;;;;5.82;100.00;101021.87;110312;1235;62878;-68
2023/04/23 04:04:27;;;;;;;24.90;16.80;;;;;;;5.88;100.00;101023.19;110407;1235;60097;-67
2023/04/23 04:06:59;;;;;;;30.00;16.70;;;;;;;5.93;100.00;101026.04;110310;1235;64291;-66
2023/04/23 04:09:28;;;;;;;31.20;17.60;;;;;;;6.00;100.00;101024.87;110325;1235;72117;-66
2023/04/23 04:12:01;;;;;;;27.70;17.20;;;;;;;6.08;100.00;101028.30;110418;1233;59595;-68
2023/04/23 04:14:31;;;;;;;25.00;17.00;;;;;;;6.16;100.00;101028.93;110204;1235;62510;-68
2023/04/23 04:17:00;;;;;;;27.80;17.20;;;;;;;6.24;100.00;101026.64;110038;1238;58330;-68
2023/04/23 04:19:29;;;;;;;26.30;18.30;;;;;;;6.31;100.00;101030.42;110270;1235;60604;-68
2023/04/23 04:21:57;;;;;;;25.80;16.90;;;;;;;6.40;100.00;101038.17;110255;1234;75469;-68
2023/04/23 04:24:27;;;;;;;25.40;17.70;;;;;;;6.48;100.00;101041.21;110288;1233;61544;-66
2023/04/23 04:26:57;;;;;;;29.40;18.20;;;;;;;6.58;100.00;101045.20;110286;1234;59939;-65
2023/04/23 04:29:27;;;;;;;30.50;18.00;;;;;;;6.69;100.00;101043.40;110320;1235;73084;-65
2023/04/23 04:31:56;;;;;;;28.20;18.10;;;;;;;6.79;100.00;101044.14;110287;1237;62494;-66
2023/04/23 04:34:25;;;;;;;30.10;19.30;;;;;;;6.90;100.00;101048.39;110305;1234;61992;-66
2023/04/23 04:36:53;;;;;;;30.90;19.40;;;;;;;7.03;100.00;101047.05;110427;1233;74578;-66
2023/04/23 04:39:22;;;;;;;28.80;19.20;;;;;;;7.15;100.00;101047.44;110411;1234;62159;-66
2023/04/23 04:41:52;;;;;;;27.80;18.30;;;;;;;7.29;100.00;101048.46;110317;1233;59192;-67
2023/04/23 04:44:21;;;;;;;26.80;17.90;;;;;;;7.40;100.00;101047.86;110292;1235;73010;-66
2023/04/23 04:46:50;;;;;;;28.50;18.50;;;;;;;7.47;100.00;101048.89;110284;1238;62433;-68
2023/04/23 04:49:18;;;;;;;30.20;18.70;;;;;;;7.55;100.00;101055.01;110303;1235;61079;-68
2023/04/23 04:51:47;;;;;;;29.50;18.40;;;;;;;7.60;100.00;101057.48;110425;1233;65218;-67
2023/04/23 04:54:16;;;;;;;28.70;20.00;;;;;;;7.65;100.00;101056.70;110406;1236;60719;-67
2023/04/23 04:56:45;;;;;;;29.90;19.30;;;;;;;7.68;100.00;101056.55;110413;1236;70423;-68
2023/04/23 04:59:14;;;;;;;26.00;18.60;;;;;;;7.69;100.00;101060.62;110406;1234;74360;-67
2023/04/23 05:01:43;;;;;;;31.20;18.70;;;;;;;7.75;100.00;101061.73;110294;1237;62587;-67
2023/04/23 05:04:12;;;;;;;27.20;18.50;;;;;;;7.81;100.00;101063.15;110417;1233;60564;-67
2023/04/23 05:06:41;;;;;;;29.60;18.80;;;;;;;7.86;100.00;101061.79;110348;1234;75466;-67
2023/04/23 05:09:10;;;;;;;27.40;18.10;;;;;;;7.96;100.00;101066.09;110237;1235;72478;-68
2023/04/23 05:11:40;;;;;;;28.00;18.10;;;;;;;8.04;100.00;101067.06;110180;1237;59168;-69
2023/04/23 05:14:08;;;;;;;29.10;18.60;;;;;;;8.10;100.00;101060.45;110163;1235;73850;-68
2023/04/23 05:16:37;;;;;;;26.00;17.10;;;;;;;8.22;100.00;101066.34;110240;1237;58823;-68
2023/04/23 05:19:07;;;;;;;30.80;19.70;;;;;;;8.35;100.00;101067.03;110378;1237;58294;-66
2023/04/23 05:21:36;;;;;;;29.10;17.20;;;;;;;8.47;100.00;101066.18;110426;1233;74394;-68
2023/04/23 05:24:05;;;;;;;27.30;17.50;;;;;;;8.58;100.00;101069.00;110352;1234;72891;-68
2023/04/23 05:26:33;;;;;;;26.20;17.40;;;;;;;8.70;100.00;101066.91;110343;1234;70221;-67
2023/04/23 05:29:03;;;;;;;25.80;16.30;;;;;;;8.82;100.00;101068.27;110449;1236;63242;-67
2023/04/23 05:31:31;;;;;;;23.10;16.00;;;;;;;8.98;100.00;101068.92;110404;1234;60434;-67
2023/04/23 05:34:00;;;;;;;24.00;15.40;;;;;;;9.08;100.00;101067.60;110486;1234;60992;-68
2023/04/23 05:36:30;;;;;;;22.50;15.60;;;;;;;9.19;100.00;101071.83;110438;1233;64330;-68
2023/04/23 05:38:59;;;;;;;20.90;14.30;;;;;;;9.28;100.00;101072.66;110429;1233;71377;-67
2023/04/23 05:41:28;;;;;;;21.40;14.30;;;;;;;9.38;100.00;101072.71;110404;1234;69473;-68
2023/04/23 05:43:56;;;;;;;22.90;14.80;;;;;;;9.48;100.00;101072.33;110109;1235;73676;-68
2023/04/23 05:46:26;;;;;;;22.30;14.80;;;;;;;9.55;100.00;101073.77;110012;1238;58393;-68
2023/04/23 05:48:55;;;;;;;24.20;15.30;;;;;;;9.66;100.00;101075.83;110287;1234;61193;-68
2023/04/23 05:51:23;;;;;;;23.80;14.90;;;;;;;9.77;100.00;101079.67;110296;1234;74160;-67
2023/04/23 05:53:52;;;;;;;19.80;14.80;;;;;;;9.87;100.00;101077.13;110294;1235;62706;-68
2023/04/23 05:56:21;;;;;;;21.60;14.00;;;;;;;9.99;100.00;101080.52;110295;1235;59965;-68
2023/04/23 05:58:50;;;;;;;24.50;15.00;;;;;;;10.11;100.00;101077.52;110314;1235;63259;-69
2023/04/23 06:01:19;;;;;;;21.60;14.20;;;;;;;10.24;100.00;101077.54;110423;1233;57798;-68
2023/04/23 06:03:48;;;;;;;19.40;13.80;;;;;;;10.36;100.00;101076.44;110275;1235;61418;-67
2023/04/23 06:06:17;;;;;;;22.10;14.40;;;;;;;10.46;100.00;101077.17;109974;1235;74801;-68
2023/04/23 06:08:45;;;;;;;19.20;12.50;;;;;;;10.61;98.82;101078.98;110348;1234;72620;-68
2023/04/23 06:11:14;;;;;;;16.70;11.20;;;;;;;10.76;93.72;101080.58;110210;1234;60798;-68
2023/04/23 06:13:43;;;;;;;17.30;12.20;;;;;;;10.82;94.28;101083.11;110329;1235;63231;-68
2023/04/23 06:16:12;;;;;;;16.60;11.40;;;;;;;10.93;94.07;101081.16;110393;1235;58311;-69
2023/04/23 06:18:41;;;;;;;17.90;12.30;;;;;;;11.05;94.20;101081.59;110237;1234;61249;-67
2023/04/23 06:21:10;;;;;;;17.90;12.50;;;;;;;11.17;93.04;101089.28;110445;1234;74739;-68
2023/04/23 06:23:38;;;;;;;15.30;12.00;;;;;;;11.27;92.59;101085.42;110458;1233;72533;-68
2023/04/23 06:26:07;;;;;;;20.10;13.90;;;;;;;11.45;90.17;101081.95;110512;1236;60754;-68
2023/04/23 06:28:37;;;;;;;15.00;10.20;;;;;;;11.53;88.97;101078.91;110500;1235;63663;-68
2023/04/23 06:31:25;;;;;;;19.00;12.10;;;;;;;11.64;86.25;101080.77;110509;1234;57818;-67
2023/04/23 06:33:53;;;;;;;19.10;13.30;;;;;;;11.69;87.06;101081.66;110404;1236;61328;-68
2023/04/23 06:36:22;;;;;;;19.40;12.70;;;;;;;11.77;87.43;101081.93;110490;1236;65722;-67
2023/04/23 06:38:51;;;;;;;20.90;12.90;;;;;;;11.90;87.43;101079.30;110260;1238;60878;-67
2023/04/23 06:41:20;;;;;;;21.20;13.30;;;;;;;12.00;88.04;101080.31;110538;1236;60027;-67
2023/04/23 06:43:57;;;;;;;19.40;13.40;;;;;;;12.14;87.18;101077.75;110397;1237;73945;-67
2023/04/23 06:46:32;;;;;;;18.50;12.10;;;;;;;12.23;85.86;101075.46;110384;1236;61025;-66
2023/04/23 06:49:01;;;;;;;18.50;11.30;;;;;;;12.33;83.95;101077.23;110536;1235;57763;-68
2023/04/23 06:51:31;;;;;;;17.70;12.20;;;;;;;12.44;84.36;101078.11;110389;1236;63012;-67
2023/04/23 06:53:59;;;;;;;18.40;11.90;;;;;;;12.58;81.96;101078.98;110489;1236;72144;-69
2023/04/23 06:56:28;;;;;;;18.80;12.80;;;;;;;12.72;81.68;101078.85;110406;1236;60733;-69
2023/04/23 06:58:57;;;;;;;15.80;10.80;;;;;;;12.86;81.70;101080.20;110395;1235;72204;-68
2023/04/23 07:01:26;;;;;;;21.20;13.40;;;;;;;13.05;80.85;101078.25;110205;1233;61071;-68
2023/04/23 07:03:55;;;;;;;19.50;13.20;;;;;;;13.18;80.55;101076.66;110488;1235;60798;-68
2023/04/23 07:06:23;;;;;;;20.60;13.60;;;;;;;13.31;79.72;101076.75;110486;1234;75097;-67
2023/04/23 07:08:52;;;;;;;17.20;11.60;;;;;;;13.36;78.67;101075.48;110222;1235;62142;-68
2023/04/23 07:11:21;;;;;;;17.40;11.40;;;;;;;13.52;78.47;101073.52;110480;1234;60041;-68
2023/04/23 07:13:50;;;;;;;15.70;10.00;;;;;;;13.67;77.15;101071.45;110357;1235;63296;-67
2023/04/23 07:16:21;;;;;;;18.50;11.40;;;;;;;13.85;72.83;101071.83;110405;1236;58304;-69
2023/04/23 07:18:50;;;;;;;11.80;9.60;;;;;;;13.89;63.67;101076.92;110400;1233;58236;-67
2023/04/23 07:21:19;;;;;;;15.10;11.00;;;;;;;13.94;60.70;101077.02;110505;1233;73553;-74
2023/04/23 07:23:47;;;;;;;14.20;10.20;;;;;;;14.01;60.07;101076.77;110493;1234;72535;-67
2023/04/23 07:26:16;;;;;;;18.10;12.00;;;;;;;14.09;58.97;101075.09;110503;1234;60613;-67
2023/04/23 07:28:47;;;;;;;17.50;12.80;;;;;;;14.15;59.15;101073.89;110465;1235;63255;-67
2023/04/23 07:31:19;;;;;;;26.10;16.60;;;;;;;14.25;59.20;101070.15;110413;1235;61328;-68
2023/04/23 07:33:48;;;;;;;21.10;14.00;;;;;;;14.29;59.32;101069.58;110325;1235;58316;-68
2023/04/23 07:36:17;;;;;;;14.00;10.50;;;;;;;14.46;58.71;101073.66;110466;1235;63896;-67
2023/04/23 07:38:46;;;;;;;16.20;10.50;;;;;;;14.59;56.93;101070.48;110490;1234;70329;-67
2023/04/23 07:41:15;;;;;;;14.10;10.20;;;;;;;14.69;56.26;101069.16;110309;1233;70911;-67
2023/04/23 07:43:43;;;;;;;13.50;9.20;;;;;;;14.79;56.66;101069.45;110482;1234;73599;-67
2023/04/23 07:46:12;;;;;;;21.30;13.70;;;;;;;14.94;55.63;101069.23;110276;1234;57906;-69
2023/04/23 07:48:42;;;;;;;26.70;14.90;;;;;;;15.07;53.38;101055.52;110341;1236;57825;-66
2023/04/23 07:51:11;;;;;;;18.20;11.40;;;;;;;15.25;51.66;101061.87;110319;1234;64357;-66
2023/04/23 07:53:40;;;;;;;13.70;8.10;;;;;;;15.32;50.94;101060.60;110291;1233;61127;-65
2023/04/23 07:56:09;;;;;;;17.10;9.30;;;;;;;15.41;50.57;101059.44;110480;1234;69658;-65
2023/04/23 07:58:38;;;;;;;8.80;6.50;;;;;;;15.42;47.84;101055.65;110380;1233;73488;-65
2023/04/23 08:01:06;;;;;;;9.70;7.00;;;;;;;15.45;47.81;101051.89;110462;1234;60418;-66
2023/04/23 08:03:35;;;;;;;11.20;7.30;;;;;;;15.67;49.43;101053.10;110447;1233;58250;-67
2023/04/23 08:06:05;;;;;;;13.30;8.40;;;;;;;15.87;50.55;101055.09;110457;1234;63295;-66
2023/04/23 08:08:33;;;;;;;11.90;9.00;;;;;;;16.09;49.93;101051.50;110422;1234;72257;-66
2023/04/23 08:11:02;;;;;;;11.60;7.80;;;;;;;16.24;48.63;101049.62;110126;1233;60752;-66
2023/04/23 08:13:32;;;;;;;14.20;8.30;;;;;;;16.35;49.10;101048.47;110419;1234;63237;-66
2023/04/23 08:16:01;;;;;;;13.20;7.50;;;;;;;16.55;49.49;101046.12;110071;1238;60737;-67
2023/04/23 08:18:29;;;;;;;12.80;8.00;;;;;;;16.66;49.09;101045.91;110308;1234;61714;-68
2023/04/23 08:20:58;;;;;;;10.20;7.60;;;;;;;16.81;48.78;101039.31;110174;1234;74984;-67
2023/04/23 08:23:27;;;;;;;10.60;7.20;;;;;;;16.97;47.83;101036.94;110162;1234;341681;-67
2023/04/23 08:25:56;;;;;;;11.60;7.90;;;;;;;17.15;45.97;101036.92;110374;1234;59766;-67
2023/04/23 08:28:26;;;;;;;13.70;8.10;;;;;;;17.17;46.89;101032.17;110353;1234;63252;-67
2023/04/23 08:30:55;;;;;;;10.90;7.20;;;;;;;17.29;47.72;101032.50;110272;1237;58249;-68
2023/04/23 08:33:24;;;;;;;16.00;8.30;;;;;;;17.41;46.47;101027.96;110317;1234;58257;-67
2023/04/23 08:35:53;;;;;;;16.70;9.10;;;;;;;17.52;43.63;101026.20;110398;1234;62960;-69
2023/04/23 08:38:22;;;;;;;11.10;7.10;;;;;;;17.52;42.38;101020.06;110311;1237;71452;-75
2023/04/23 08:40:57;;;;;;;10.30;6.50;;;;;;;17.67;43.73;101022.64;110402;1234;69191;-69
2023/04/23 08:43:48;;;;;;;12.30;7.00;;;;;;;17.86;42.78;101020.66;110203;1234;72743;-70
2023/04/23 08:46:18;;;;;;;10.40;5.90;;;;;;;18.02;42.32;101013.74;110353;1235;58178;-68
2023/04/23 08:48:50;;;;;;;11.90;6.40;;;;;;;18.20;41.75;101014.45;110285;1234;61001;-69
2023/04/23 08:51:23;;;;;;;11.40;6.70;;;;;;;18.29;42.12;101008.98;110247;1235;73010;-71
2023/04/23 08:53:55;;;;;;;10.40;6.50;;;;;;;18.39;41.43;101002.41;110070;1234;72636;-71
2023/04/23 08:56:26;;;;;;;11.00;6.70;;;;;;;18.54;41.79;101005.00;110341;1235;69913;-71
2023/04/23 08:58:55;;;;;;;10.20;6.10;;;;;;;18.67;42.42;101001.56;110188;1233;74402;-72
2023/04/23 09:01:24;;;;;;;10.90;6.50;;;;;;;18.79;42.05;101000.05;110205;1237;58330;-71
2023/04/23 09:03:54;;;;;;;8.80;5.80;;;;;;;18.89;38.69;100995.47;110291;1233;60696;-73
2023/04/23 09:06:23;;;;;;;10.50;5.90;;;;;;;18.98;36.95;100993.27;110401;1234;73998;-72
2023/04/23 09:08:53;;;;;;;10.10;6.00;;;;;;;19.05;36.54;100989.27;110376;1234;71669;-71
2023/04/23 09:11:25;;;;;;;10.00;5.00;;;;;;;19.20;37.33;100986.44;110283;1234;71694;-70
2023/04/23 09:13:55;;;;;;;6.40;4.70;;;;;;;19.34;36.69;100983.11;110301;1233;62894;-71
2023/04/23 09:16:25;;;;;;;7.50;4.50;;;;;;;19.36;34.54;100981.36;110233;1234;58337;-73
2023/04/23 09:18:54;;;;;;;8.20;4.60;;;;;;;19.36;34.97;100981.48;110092;1234;58253;-72
2023/04/23 09:21:23;;;;;;;9.10;4.70;;;;;;;19.57;35.84;100980.78;110221;1235;71923;-72
2023/04/23 09:23:52;;;;;;;6.70;4.50;;;;;;;19.81;34.44;100979.23;110103;1234;72733;-72
2023/04/23 09:26:22;;;;;;;9.60;4.20;;;;;;;19.87;33.79;100977.52;110200;1234;70348;-72
2023/04/23 09:28:50;;;;;;;5.60;4.20;;;;;;;19.93;32.57;100974.27;109949;1234;73641;-72
2023/04/23 09:31:23;;;;;;;6.60;4.40;;;;;;;19.82;31.79;100971.05;110088;1236;58317;-75
2023/04/23 09:33:54;;;;;;;7.90;3.70;;;;;;;19.96;33.29;100962.56;109988;1233;57826;-75
2023/04/23 09:36:23;;;;;;;7.40;4.60;;;;;;;20.15;32.32;100970.51;110118;1234;73647;-75
2023/04/23 09:38:57;;;;;;;6.40;3.90;;;;;;;20.05;32.21;100965.00;110023;1233;72716;-74
2023/04/23 09:41:28;;;;;;;8.30;4.20;;;;;;;19.83;31.77;100964.92;110228;1233;59743;-76
2023/04/23 09:43:58;;;;;;;7.00;4.10;;;;;;;19.90;32.32;100958.27;110119;1233;63276;-75
2023/04/23 09:46:38;;;;;;;5.40;3.80;;;;;;;19.89;31.52;100962.83;110259;1235;59488;-75
2023/04/23 09:49:09;;;;;;;10.20;3.90;;;;;;;20.14;31.31;100963.33;110337;1234;57786;-75
2023/04/23 09:51:46;;;;;;;6.00;3.20;;;;;;;20.30;31.36;100963.34;110112;1235;63862;-74
2023/04/23 09:54:17;;;;;;;5.50;3.70;;;;;;;20.49;30.49;100963.86;110204;1234;72254;-75
2023/04/23 09:57:00;;;;;;;7.50;3.80;;;;;;;20.60;29.91;100964.63;110215;1234;59715;-76
2023/04/23 09:59:30;;;;;;;7.00;3.50;;;;;;;19.52;33.84;100971.14;110214;1234;72761;-76
2023/04/23 10:02:16;;;;;;;13.40;4.30;;;;;;;19.23;35.23;100970.88;110222;1234;61278;-75
2023/04/23 10:04:50;;;;;;;13.40;4.30;;;;;;;18.79;36.15;100967.05;110066;1238;58183;-74
2023/04/23 10:07:23;;;;;;;5.50;2.90;;;;;;;18.73;37.07;100965.15;109967;1235;74416;-74
2023/04/23 10:09:52;;;;;;;6.40;3.30;;;;;;;18.71;36.54;100963.59;109970;1234;61904;-75
2023/04/23 10:12:22;;;;;;;6.90;3.40;;;;;;;19.09;36.77;100965.48;110182;1235;67988;-74
2023/04/23 10:14:56;;;;;;;5.10;3.00;;;;;;;19.13;36.52;100964.08;110210;1235;64531;-76
2023/04/23 10:17:25;;;;;;;6.00;3.20;;;;;;;19.61;36.20;100964.77;110329;1234;61421;-75
2023/04/23 10:19:54;;;;;;;7.40;3.90;;;;;;;19.66;36.04;100963.36;110255;1234;61657;-75
2023/04/23 10:22:27;;;;;;;9.40;3.80;;;;;;;20.06;35.44;100962.27;110139;1234;64310;-75
2023/04/23 10:24:59;;;;;;;7.10;3.80;;;;;;;20.28;35.11;100957.24;110303;1234;71380;-75
2023/04/23 10:27:30;;;;;;;6.20;3.80;;;;;;;20.67;33.97;100955.58;110225;1234;70027;-75
2023/04/23 10:30:19;;;;;;;8.50;3.70;;;;;;;19.91;33.56;100954.15;110310;1234;62886;-75
2023/04/23 10:32:49;;;;;;;4.80;3.40;;;;;;;19.73;34.09;100950.61;110164;1238;58353;-75
2023/04/23 10:35:18;;;;;;;7.70;3.70;;;;;;;20.00;33.28;100949.41;110334;1234;57943;-75
2023/04/23 10:37:47;;;;;;;6.70;3.40;;;;;;;20.00;32.33;100946.08;110113;1237;63845;-75
2023/04/23 10:40:32;;;;;;;8.10;3.50;;;;;;;20.62;32.17;100944.23;110255;1234;61718;-76
2023/04/23 10:43:01;;;;;;;5.00;3.60;;;;;;;21.02;31.49;100941.19;110340;1234;60537;-76
2023/04/23 10:45:31;;;;;;;6.00;3.60;;;;;;;21.26;30.89;100938.44;110228;1234;62538;-76
2023/04/23 10:48:00;;;;;;;4.60;3.10;;;;;;;21.74;30.10;100936.95;110225;1237;58300;-76
2023/04/23 10:50:34;;;;;;;7.20;3.40;;;;;;;22.25;29.76;100936.52;110338;1234;58324;-75
2023/04/23 10:53:19;;;;;;;4.80;3.00;;;;;;;21.92;29.02;100932.77;110315;1234;74444;-75
2023/04/23 10:55:48;;;;;;;6.40;3.70;;;;;;;21.77;29.08;100931.86;110249;1234;72713;-75
2023/04/23 10:58:16;;;;;;;6.80;3.50;;;;;;;22.94;28.36;100931.00;110354;1234;69905;-75
2023/04/23 11:00:45;;;;;;;7.00;3.30;;;;;;;22.94;27.88;100932.36;110290;1234;62957;-75
2023/04/23 11:03:40;;;;;;;4.80;3.10;;;;;;;23.39;27.84;100933.73;110289;1236;57798;-74
2023/04/23 11:06:19;;;;;;;6.40;3.40;;;;;;;23.88;26.63;100933.20;110070;1234;58289;-74
2023/04/23 11:08:52;;;;;;;5.00;2.60;;;;;;;24.06;26.44;100928.86;110044;1235;73055;-75
2023/04/23 11:11:42;;;;;;;4.40;2.80;;;;;;;24.92;25.00;100931.86;110063;1234;72159;-74
2023/04/23 11:14:14;;;;;;;5.10;2.50;;;;;;;23.96;25.91;100929.11;109933;1234;70835;-75
2023/04/23 11:16:43;;;;;;;5.00;2.80;;;;;;;24.09;25.78;100929.30;109930;1234;74946;-75
2023/04/23 11:19:14;;;;;;;4.50;2.80;;;;;;;23.91;26.10;100926.41;110151;1235;61298;-75